AQQ10 IFIS: Internet Flight Information System
logo dgac
Viernes 01 de Julio del 2022
Buscar por aerodromo o helipuerto
Ingrese nombre de aeródromo, localidad o designador OACI:
METAR del 01-07-2022 a las 13:00 UTC
Para mayor información visite www.meteochile.cl
METAR SCVM 011300Z 36006KT 3500 RA BKN008 OVC030 09/08 Q1018
Viento: dirección 360 grados, velocidad 6 nudos
Visibilidad: 3500 metros
Lluvia
Nubes: Nublado a 800 pies sobre el nivel del aeródromo
Nubes: Cubierto a 3000 pies sobre el nivel del aeródromo
Temperatura: 9 °C
Rocío: 8 °C
Humedad_relativa: 93%
Presión: 1018 hPa
METAR del 01-07-2022 a las 12:00 UTC
Para mayor información visite www.meteochile.cl
METAR SCVM 011200Z 35008KT 290V030 3500 RA OVC016 09/08 Q1017 RERA
Viento: dirección 350 grados, velocidad 8 nudos
Viento con dirección variable entre 290 y 030 grados
Visibilidad: 3500 metros
Lluvia
Nubes: Cubierto a 1600 pies sobre el nivel del aeródromo
Temperatura: 9 °C
Rocío: 8 °C
Humedad_relativa: 93%
Presión: 1017 hPa
Se observó recientemente Lluvia
METAR del 01-07-2022 a las 11:00 UTC
Para mayor información visite www.meteochile.cl
METAR SCVM 011100Z 34009KT 6000 RA OVC066 09/08 Q1016
Viento: dirección 340 grados, velocidad 9 nudos
Visibilidad: 6000 metros
Lluvia
Nubes: Cubierto a 6600 pies sobre el nivel del aeródromo
Temperatura: 9 °C
Rocío: 8 °C
Humedad_relativa: 93%
Presión: 1016 hPa
METAR del 01-07-2022 a las 10:00 UTC
Para mayor información visite www.meteochile.cl
METAR SCVM 011000Z 02008KT 330V060 9999 OVC016 10/07 Q1015
Viento: dirección 020 grados, velocidad 8 nudos
Viento con dirección variable entre 330 y 060 grados
Visibilidad: 10 km o más
Nubes: Cubierto a 1600 pies sobre el nivel del aeródromo
Temperatura: 10 °C
Rocío: 7 °C
Humedad_relativa: 82%
Presión: 1015 hPa
METAR del 01-07-2022 a las 09:00 UTC
Para mayor información visite www.meteochile.cl
METAR SCVM 010900Z 03008KT 330V070 9999 BKN016 10/07 Q1016
Viento: dirección 030 grados, velocidad 8 nudos
Viento con dirección variable entre 330 y 070 grados
Visibilidad: 10 km o más
Nubes: Nublado a 1600 pies sobre el nivel del aeródromo
Temperatura: 10 °C
Rocío: 7 °C
Humedad_relativa: 82%
Presión: 1016 hPa
METAR del 01-07-2022 a las 08:00 UTC
Para mayor información visite www.meteochile.cl
METAR SCVM 010800Z 36007KT 9999 OVC016 10/07 Q1017
Viento: dirección 360 grados, velocidad 7 nudos
Visibilidad: 10 km o más
Nubes: Cubierto a 1600 pies sobre el nivel del aeródromo
Temperatura: 10 °C
Rocío: 7 °C
Humedad_relativa: 82%
Presión: 1017 hPa
METAR del 01-07-2022 a las 07:00 UTC
Para mayor información visite www.meteochile.cl
METAR SCVM 010700Z 09003KT 030V180 9999 BKN013 09/07 Q1017
Viento: dirección 090 grados, velocidad 3 nudos
Viento con dirección variable entre 030 y 180 grados
Visibilidad: 10 km o más
Nubes: Nublado a 1300 pies sobre el nivel del aeródromo
Temperatura: 9 °C
Rocío: 7 °C
Humedad_relativa: 87%
Presión: 1017 hPa
METAR del 01-07-2022 a las 06:00 UTC
Para mayor información visite www.meteochile.cl
METAR SCVM 010600Z 05005KT 9999 SCT013 09/07 Q1017
Viento: dirección 050 grados, velocidad 5 nudos
Visibilidad: 10 km o más
Nubes: Nubosidad parcial a 1300 pies sobre el nivel del aeródromo
Temperatura: 9 °C
Rocío: 7 °C
Humedad_relativa: 87%
Presión: 1017 hPa
METAR del 01-07-2022 a las 05:00 UTC
Para mayor información visite www.meteochile.cl
METAR SCVM 010500Z 04005KT 9999 BKN013 09/08 Q1017
Viento: dirección 040 grados, velocidad 5 nudos
Visibilidad: 10 km o más
Nubes: Nublado a 1300 pies sobre el nivel del aeródromo
Temperatura: 9 °C
Rocío: 8 °C
Humedad_relativa: 93%
Presión: 1017 hPa
METAR del 01-07-2022 a las 04:00 UTC
Para mayor información visite www.meteochile.cl
METAR SCVM 010400Z 04004KT 9999 BKN015 09/08 Q1017
Viento: dirección 040 grados, velocidad 4 nudos
Visibilidad: 10 km o más
Nubes: Nublado a 1500 pies sobre el nivel del aeródromo
Temperatura: 9 °C
Rocío: 8 °C
Humedad_relativa: 93%
Presión: 1017 hPa